Renfrew, Pennsylvania
Current Conditions -  °F | °C
As of 1:15 PM on Friday 28 Nov 2014 (Local Time) from KBTP Reporting Station
Overcast Overcast  
Wind Chill: 17°   Ceiling: 11000
Heat Index: 27°   Visibility: 10mi
Dew Point: 12°   Wind: 9mph
Humidity: 55%   Direction: 270°W
Pressure: 30.27"   Gusts: NA
Location:  40.81°N, 79.96°W
Report Text: KBTP 281815Z AUTO 27008KT 240V310 10SM FEW032 OVC110 M03/M11 A3027 RMK AO1
Loading
Personal Weather Stations






























Interactive Weather Map New forecast layout! Learn more

10-Day Weather Forecast

Advertisements
Track Severe Weather on mobile